This is the latest recevied weather packets stored in our database for station/object KB1JL-13. If no packets are shown the sender has not sent any weather packets the latest 10 day(s).
| Time | Temp. | Humidity | Pressure | Rain* | Wind** | Luminosity | Snow |
|---|---|---|---|---|---|---|---|
| 1777692925 | 10.56° C | 79% | 1023.7 hPa | 0 mm | - | 0 W/m² | - |
| 1777692622 | 10.56° C | 79% | 1023.7 hPa | 0 mm | - | 0 W/m² | - |
| 1777692317 | 10.56° C | 78% | 1024 hPa | 0 mm | - | 0 W/m² | - |
| 1777692014 | 10.56° C | 78% | 1023.7 hPa | 0 mm | - | 0 W/m² | - |
| 1777691712 | 10.56° C | 79% | 1024 hPa | 0 mm | - | 0 W/m² | - |
| 1777691410 | 10.56° C | 78% | 1023.7 hPa | 0 mm | - | 0 W/m² | - |
| 1777691108 | 10.56° C | 77% | 1023.7 hPa | 0 mm | - | 0 W/m² | - |
| 1777690806 | 10.56° C | 77% | 1023.7 hPa | 0 mm | - | 0 W/m² | - |
| 1777690503 | 10.56° C | 77% | 1023.7 hPa | 0 mm | - | 0 W/m² | - |
| 1777690201 | 10.56° C | 77% | 1024 hPa | 0 mm | - | 0 W/m² | - |
| 1777689898 | 10.56° C | 77% | 1024 hPa | 0 mm | - | 0 W/m² | - |
| 1777689597 | 10.56° C | 78% | 1024 hPa | 0 mm | - | 0 W/m² | - |
| 1777689294 | 10.56° C | 77% | 1024 hPa | 0 mm | - | 0 W/m² | - |
| 1777688991 | 10.56° C | 77% | 1024 hPa | 0 mm | - | 0 W/m² | - |
| 1777688687 | 10.56° C | 76% | 1023.7 hPa | 0 mm | - | 0 W/m² | - |
| 1777687779 | 11.11° C | 75% | 1024 hPa | 0 mm | - | 0 W/m² | - |
| 1777674138 | 15.56° C | 44% | 1021.6 hPa | 0 mm | - | 67 W/m² | - |
| 1777673834 | 16.11° C | 44% | 1021.6 hPa | 0 mm | - | 143 W/m² | - |
| 1777673531 | 16.11° C | 44% | 1021.6 hPa | 0 mm | - | 166 W/m² | - |
| 1777673229 | 16.11° C | 46% | 1021.6 hPa | 0 mm | - | 182 W/m² | - |
| 1777672926 | 16.11° C | 45% | 1021.6 hPa | 0 mm | - | 200 W/m² | - |
| 1777672623 | 16.11° C | 46% | 1021.6 hPa | 0 mm | - | 223 W/m² | - |
| 1777672318 | 16.11° C | 45% | 1021.6 hPa | 0 mm | - | 241 W/m² | - |
| 1777672013 | 16.11° C | 43% | 1021.6 hPa | 0 mm | - | 259 W/m² | - |
| 1777671406 | 17.78° C | 38% | 1021.6 hPa | 0 mm | - | 278 W/m² | - |
* Rain latest hour (hover to see other rain measurements)
** Current wind speed in m/s (hover to see current wind gust speed)